createdAt,value
2023-04-28T05:03:39.433Z,7.27
2023-04-28T05:04:40.397Z,0.63
2023-04-28T05:05:39.260Z,0.52
2023-04-28T05:06:40.256Z,0.95
2023-04-28T05:07:40.253Z,0.80
2023-04-28T05:08:40.244Z,0.73
2023-04-28T05:09:40.248Z,0.77
2023-04-28T05:10:40.242Z,0.42
2023-04-28T05:11:40.235Z,0.53
2023-04-28T05:12:40.237Z,0.65
2023-04-28T05:13:40.220Z,0.79
2023-04-28T05:14:40.205Z,1.04
2023-04-28T05:15:40.188Z,1.19
2023-04-28T05:16:39.226Z,0.88
2023-04-28T05:17:40.202Z,1.13
2023-04-28T05:18:40.184Z,0.74
2023-04-28T05:19:40.201Z,0.93
2023-04-28T05:20:39.157Z,0.86
2023-04-28T05:21:39.163Z,0.89
2023-04-28T05:22:40.146Z,0.93
2023-04-28T05:23:40.155Z,0.90
2023-04-28T05:24:40.147Z,0.84
2023-04-28T05:25:39.168Z,1.02
2023-04-28T05:26:40.178Z,1.10
2023-04-28T05:27:40.189Z,1.37
2023-04-28T05:28:40.205Z,0.86
2023-04-28T05:29:40.210Z,1.08
2023-04-28T05:30:39.268Z,0.98
2023-04-28T05:31:40.295Z,1.07
2023-04-28T05:32:40.298Z,1.13
2023-04-28T05:33:40.284Z,0.87
2023-04-28T05:34:39.302Z,1.22
2023-04-28T05:35:40.299Z,1.02
2023-04-28T05:36:40.272Z,1.12
2023-04-28T05:37:39.273Z,0.95
2023-04-28T05:38:40.276Z,0.90
2023-04-28T05:39:39.270Z,0.72
2023-04-28T05:40:40.269Z,0.86
2023-04-28T05:41:40.260Z,0.76
2023-04-28T05:42:40.256Z,0.93
2023-04-28T05:43:40.300Z,1.06
2023-04-28T05:44:42.908Z,1.73
2023-04-28T05:45:39.309Z,1.67
2023-04-28T05:46:40.315Z,1.36
2023-04-28T05:47:40.269Z,1.39
2023-04-28T05:48:40.249Z,1.01
2023-04-28T05:49:39.246Z,1.14
2023-04-28T05:50:40.222Z,1.80
2023-04-28T05:51:40.235Z,1.37
2023-04-28T05:52:40.221Z,2.73
2023-04-28T05:53:40.224Z,1.51
2023-04-28T05:54:40.199Z,1.73
2023-04-28T05:55:39.215Z,1.61
2023-04-28T05:56:40.181Z,1.84
2023-04-28T05:57:49.703Z,1.99
2023-04-28T05:58:40.183Z,2.01
2023-04-28T05:59:39.168Z,1.74
2023-04-28T06:00:39.151Z,2.22
2023-04-28T06:01:39.151Z,2.26
2023-04-28T06:02:39.252Z,1.73
2023-04-28T06:03:40.900Z,2.09
2023-04-28T06:04:40.393Z,1.64
2023-04-28T06:05:39.495Z,2.25
2023-04-28T06:06:40.588Z,1.75
2023-04-28T06:07:40.257Z,2.17
2023-04-28T06:08:40.129Z,1.99
2023-04-28T06:09:39.121Z,2.19
2023-04-28T06:10:40.100Z,2.00
2023-04-28T06:11:40.263Z,1.82
2023-04-28T06:12:40.093Z,2.05
2023-04-28T06:13:40.088Z,2.04
2023-04-28T06:14:40.083Z,2.19
2023-04-28T06:15:39.136Z,2.28
2023-04-28T06:16:40.157Z,2.45
2023-04-28T06:17:40.191Z,2.77
2023-04-28T06:18:40.211Z,2.33
2023-04-28T06:19:40.213Z,2.53
2023-04-28T06:20:40.225Z,2.49
2023-04-28T06:21:40.249Z,2.05
2023-04-28T06:22:39.266Z,2.33
2023-04-28T06:23:40.396Z,2.34
2023-04-28T06:24:40.317Z,2.62
2023-04-28T06:25:39.307Z,2.14
2023-04-28T06:26:39.319Z,1.90
2023-04-28T06:27:40.290Z,2.41
2023-04-28T06:28:40.326Z,2.41
2023-04-28T06:29:40.339Z,2.70
2023-04-28T06:30:40.365Z,2.52
2023-04-28T06:31:39.432Z,2.29
2023-04-28T06:32:40.375Z,2.16
2023-04-28T06:33:40.456Z,2.69
2023-04-28T06:34:40.410Z,2.54
2023-04-28T06:35:40.424Z,2.74
2023-04-28T06:36:40.438Z,2.77
2023-04-28T06:37:40.470Z,2.72
2023-04-28T06:38:39.497Z,2.57
2023-04-28T06:39:40.506Z,2.45
2023-04-28T06:40:40.526Z,2.48
2023-04-28T06:41:40.528Z,2.59
2023-04-28T06:42:40.553Z,2.58
2023-04-28T06:43:40.574Z,2.23
2023-04-28T06:44:39.593Z,2.15
2023-04-28T06:45:40.592Z,2.53
2023-04-28T06:46:40.625Z,2.56
2023-04-28T06:47:39.640Z,2.49
2023-04-28T06:48:39.616Z,2.76
2023-04-28T06:49:44.853Z,3.05
2023-04-28T06:50:42.371Z,2.58
2023-04-28T06:51:39.609Z,2.65
2023-04-28T06:52:39.940Z,2.09
2023-04-28T06:53:40.636Z,2.14
2023-04-28T06:54:41.149Z,2.47
2023-04-28T06:55:39.659Z,1.47
2023-04-28T06:56:40.614Z,1.86
2023-04-28T06:57:39.603Z,1.47
2023-04-28T06:58:40.594Z,1.50
2023-04-28T06:59:40.573Z,1.53
2023-04-28T07:00:40.598Z,1.33
2023-04-28T07:01:39.698Z,1.61
2023-04-28T07:02:39.637Z,1.51
2023-04-28T07:03:39.641Z,1.38
2023-04-28T07:04:40.541Z,1.50
2023-04-28T07:05:39.537Z,1.37
2023-04-28T07:06:40.539Z,1.87
2023-04-28T07:07:40.522Z,1.52
2023-04-28T07:08:40.505Z,1.47
2023-04-28T07:09:40.546Z,1.75
2023-04-28T07:10:39.507Z,1.45
2023-04-28T07:11:40.533Z,1.33
2023-04-28T07:12:39.517Z,1.46
2023-04-28T07:13:39.499Z,1.07
2023-04-28T07:14:40.470Z,1.40
2023-04-28T07:15:40.457Z,1.46
2023-04-28T07:16:40.560Z,1.31
2023-04-28T07:17:39.580Z,1.53
2023-04-28T07:18:40.597Z,1.38
2023-04-28T07:19:40.730Z,1.19
2023-04-28T07:20:39.604Z,1.13
2023-04-28T07:21:39.652Z,1.31
2023-04-28T07:22:40.668Z,1.17
2023-04-28T07:23:40.692Z,1.79
2023-04-28T07:24:40.749Z,1.62
2023-04-28T07:25:40.733Z,1.37
2023-04-28T07:26:40.756Z,1.46
2023-04-28T07:27:40.824Z,1.38
2023-04-28T07:28:40.808Z,1.54
2023-04-28T07:29:40.816Z,1.53
2023-04-28T07:30:39.803Z,1.22
2023-04-28T07:31:39.842Z,1.20
2023-04-28T07:32:40.860Z,1.35
2023-04-28T07:33:39.821Z,1.47
2023-04-28T07:34:40.826Z,1.36
2023-04-28T07:35:39.836Z,1.44
2023-04-28T07:36:40.818Z,1.40
2023-04-28T07:37:40.826Z,1.08
2023-04-28T07:38:40.852Z,1.38
2023-04-28T07:39:40.851Z,1.53
2023-04-28T07:40:40.850Z,1.46
2023-04-28T07:41:39.861Z,1.46
2023-04-28T07:42:40.872Z,1.54
2023-04-28T07:43:39.893Z,1.64
2023-04-28T07:44:40.893Z,1.45
2023-04-28T07:45:40.938Z,1.66
2023-04-28T07:46:40.886Z,1.25
2023-04-28T07:47:39.981Z,1.33
2023-04-28T07:48:40.960Z,1.65
2023-04-28T07:49:41.185Z,1.48
2023-04-28T07:50:40.933Z,1.62
2023-04-28T07:51:41.016Z,2.24
2023-04-28T07:52:40.923Z,1.81
2023-04-28T07:53:40.912Z,2.07
2023-04-28T07:54:41.200Z,1.70
2023-04-28T07:55:41.052Z,1.87
2023-04-28T07:56:40.040Z,1.73
2023-04-28T07:57:40.089Z,2.15
2023-04-28T07:58:41.100Z,2.51
2023-04-28T07:59:41.234Z,1.79
2023-04-28T08:00:41.147Z,2.92
2023-04-28T08:01:41.288Z,1.97
2023-04-28T08:02:41.469Z,2.56
2023-04-28T08:03:40.635Z,1.96
2023-04-28T08:04:40.557Z,1.87
2023-04-28T08:05:40.498Z,2.18
2023-04-28T08:06:40.494Z,2.04
2023-04-28T08:07:41.536Z,1.68
2023-04-28T08:08:41.558Z,1.89
2023-04-28T08:09:41.837Z,3.17
2023-04-28T08:10:41.626Z,2.09
2023-04-28T08:11:40.649Z,2.16
2023-04-28T08:12:41.681Z,2.40
2023-04-28T08:13:41.686Z,2.44
2023-04-28T08:14:41.716Z,1.85
2023-04-28T08:15:40.812Z,1.98
2023-04-28T08:16:40.781Z,2.37
2023-04-28T08:17:41.840Z,1.97
2023-04-28T08:18:40.869Z,1.97
2023-04-28T08:19:41.813Z,1.81
2023-04-28T08:20:40.825Z,1.94
2023-04-28T08:21:41.847Z,2.02
2023-04-28T08:22:41.845Z,1.97
2023-04-28T08:23:40.866Z,1.59
2023-04-28T08:24:40.883Z,1.86
2023-04-28T08:25:41.877Z,2.15
2023-04-28T08:26:41.883Z,2.01
2023-04-28T08:27:41.932Z,1.83
2023-04-28T08:28:41.874Z,1.86
2023-04-28T08:29:40.908Z,2.23
2023-04-28T08:30:41.887Z,1.87
2023-04-28T08:31:41.966Z,2.12
2023-04-28T08:32:41.964Z,1.99
2023-04-28T08:33:40.881Z,2.36
2023-04-28T08:34:40.894Z,1.56
2023-04-28T08:35:41.912Z,2.11
2023-04-28T08:36:41.928Z,2.50
2023-04-28T08:37:40.920Z,2.10
2023-04-28T08:38:41.901Z,2.65
2023-04-28T08:39:41.906Z,2.75
2023-04-28T08:40:40.894Z,1.85
2023-04-28T08:41:40.895Z,2.49
2023-04-28T08:42:41.901Z,1.99
2023-04-28T08:43:41.933Z,2.26
2023-04-28T08:44:42.205Z,1.77
2023-04-28T08:45:40.957Z,3.18
2023-04-28T08:46:41.005Z,3.67
2023-04-28T08:47:42.040Z,2.75
2023-04-28T08:48:42.024Z,2.55
2023-04-28T08:49:42.113Z,3.06
2023-04-28T08:50:41.996Z,2.90
2023-04-28T08:51:42.234Z,2.65
2023-04-28T08:52:42.008Z,2.42
2023-04-28T08:54:03.908Z,2.15
2023-04-28T08:54:41.988Z,2.34
2023-04-28T08:55:41.198Z,2.74
2023-04-28T08:56:42.008Z,2.80
2023-04-28T08:57:41.968Z,2.64
2023-04-28T08:58:40.970Z,2.77
2023-04-28T08:59:42.035Z,2.44
2023-04-28T09:00:41.945Z,2.33
2023-04-28T09:01:40.970Z,2.36
2023-04-28T09:02:42.152Z,2.17
2023-04-28T09:03:42.109Z,2.97
2023-04-28T09:04:42.026Z,2.42
2023-04-28T09:05:41.998Z,2.34
2023-04-28T09:06:41.901Z,2.42
2023-04-28T09:07:40.968Z,2.32
2023-04-28T09:08:40.912Z,2.59
2023-04-28T09:09:40.968Z,2.61
2023-04-28T09:10:41.865Z,2.48
2023-04-28T09:11:41.863Z,2.99
2023-04-28T09:12:41.899Z,2.44
2023-04-28T09:13:41.905Z,2.30
2023-04-28T09:14:41.867Z,2.65
2023-04-28T09:15:41.844Z,2.54
2023-04-28T09:16:41.892Z,2.44
2023-04-28T09:17:41.839Z,2.47
2023-04-28T09:18:40.797Z,2.93
2023-04-28T09:19:41.846Z,2.34
2023-04-28T09:20:41.795Z,2.75
2023-04-28T09:21:41.782Z,2.74
2023-04-28T09:22:41.817Z,2.85
2023-04-28T09:23:41.756Z,2.60
2023-04-28T09:24:41.751Z,2.73
2023-04-28T09:25:40.768Z,2.47
2023-04-28T09:26:41.757Z,2.18
2023-04-28T09:27:40.730Z,2.12
2023-04-28T09:28:41.728Z,2.74
2023-04-28T09:29:40.738Z,2.63
2023-04-28T09:30:40.720Z,2.47
2023-04-28T09:31:40.811Z,2.09
2023-04-28T09:32:40.787Z,2.48
2023-04-28T09:33:40.688Z,2.26
2023-04-28T09:34:41.718Z,2.21
2023-04-28T09:35:41.752Z,2.33
2023-04-28T09:36:40.689Z,2.21
2023-04-28T09:37:41.703Z,2.29
2023-04-28T09:38:40.780Z,2.68
2023-04-28T09:39:41.857Z,2.54
2023-04-28T09:40:41.890Z,2.66
2023-04-28T09:41:40.938Z,2.45
2023-04-28T09:42:41.092Z,2.41
2023-04-28T09:43:42.099Z,2.28
2023-04-28T09:44:41.158Z,2.87
2023-04-28T09:45:41.254Z,2.89
2023-04-28T09:46:42.272Z,2.81
2023-04-28T09:47:42.365Z,2.65
2023-04-28T09:48:41.314Z,2.57
2023-04-28T09:49:42.739Z,2.73
2023-04-28T09:50:42.434Z,2.69
2023-04-28T09:51:42.508Z,2.64
2023-04-28T09:52:42.524Z,2.40
2023-04-28T09:53:41.571Z,2.60
2023-04-28T10:41:46.771Z,1.97
2023-04-28T10:42:46.701Z,1.98
2023-04-28T10:43:47.711Z,2.13
2023-04-28T10:44:47.714Z,2.21
2023-04-28T10:45:48.136Z,2.34
2023-04-28T10:46:47.709Z,2.37
2023-04-28T10:47:46.812Z,2.32
2023-04-28T10:48:47.680Z,2.71
2023-04-28T10:49:46.688Z,2.46
2023-04-28T10:50:48.657Z,2.37
2023-04-28T10:51:46.655Z,2.60
2023-04-28T10:52:47.653Z,2.42
2023-04-28T10:53:47.805Z,3.30
2023-04-28T10:54:46.649Z,2.54
2023-04-28T10:55:47.637Z,3.32
2023-04-28T10:56:47.617Z,2.64
2023-04-28T10:57:46.635Z,2.74
2023-04-28T10:58:46.625Z,2.62
2023-04-28T10:59:46.596Z,2.92
2023-04-28T11:00:47.628Z,3.10
2023-04-28T11:01:47.635Z,3.12
2023-04-28T11:02:46.759Z,3.15
2023-04-28T11:03:47.858Z,2.66
2023-04-28T11:04:47.684Z,2.94
2023-04-28T11:05:47.597Z,2.72
2023-04-28T11:06:47.549Z,2.51
2023-04-28T11:07:47.548Z,2.41
2023-04-28T11:08:46.531Z,2.93
2023-04-28T11:09:47.542Z,2.88
2023-04-28T11:10:47.533Z,3.30
2023-04-28T11:11:46.536Z,2.53
2023-04-28T11:12:46.520Z,1.85
2023-04-28T11:13:47.528Z,2.27
2023-04-28T11:14:46.510Z,2.65
2023-04-28T11:15:47.517Z,2.25
2023-04-28T11:16:47.634Z,2.73
2023-04-28T11:17:47.591Z,2.35
2023-04-28T11:18:46.593Z,2.35
2023-04-28T11:19:46.656Z,2.14
2023-04-28T11:20:46.666Z,2.47
2023-04-28T11:21:46.677Z,2.41
2023-04-28T11:22:47.735Z,3.01
2023-04-28T11:23:46.774Z,3.34
2023-04-28T11:24:47.795Z,2.46
2023-04-28T11:25:47.842Z,1.99
2023-04-28T11:26:47.892Z,2.04
2023-04-28T11:27:47.919Z,2.56
2023-04-28T11:28:47.959Z,2.62
2023-04-28T11:29:48.033Z,2.33
2023-04-28T11:30:48.056Z,2.17
2023-04-28T11:31:48.144Z,2.03
2023-04-28T11:32:48.135Z,2.15
2023-04-28T11:33:48.159Z,2.50
2023-04-28T11:34:48.209Z,2.08
2023-04-28T11:35:47.255Z,2.01
2023-04-28T11:36:48.306Z,2.37
2023-04-28T11:37:48.365Z,1.89
2023-04-28T11:38:48.406Z,2.01
2023-04-28T11:39:48.485Z,2.35
2023-04-28T11:40:48.500Z,2.03
2023-04-28T11:41:48.552Z,1.93
2023-04-28T11:42:48.608Z,1.79
2023-04-28T11:43:47.942Z,2.06
2023-04-28T11:44:47.708Z,1.69
2023-04-28T11:45:48.991Z,1.89
2023-04-28T11:46:48.798Z,1.80
2023-04-28T11:47:47.901Z,2.08
2023-04-28T11:48:48.893Z,1.56
2023-04-28T11:49:48.942Z,1.85
2023-04-28T11:50:48.997Z,1.77
2023-04-28T11:51:49.057Z,1.74
2023-04-28T11:52:48.105Z,2.14
2023-04-28T11:53:48.179Z,1.95
2023-04-28T11:54:48.216Z,2.13
2023-04-28T11:55:49.235Z,1.65
2023-04-28T11:56:49.300Z,1.92
2023-04-28T11:57:49.343Z,2.28
2023-04-28T11:58:49.420Z,1.88
2023-04-28T11:59:49.419Z,2.16
2023-04-28T12:00:48.547Z,1.77
2023-04-28T12:01:49.603Z,2.18
2023-04-28T12:02:48.876Z,2.29
2023-04-28T12:03:49.795Z,2.05
2023-04-28T12:04:49.764Z,1.84
2023-04-28T12:05:49.911Z,1.90
2023-04-28T12:06:49.854Z,1.61
2023-04-28T12:07:49.900Z,1.93
2023-04-28T12:08:48.973Z,1.65
2023-04-28T12:09:50.022Z,1.81
2023-04-28T12:10:49.364Z,2.09
2023-04-28T12:11:50.125Z,1.89
2023-04-28T12:12:53.179Z,1.85
2023-04-28T12:13:50.177Z,1.99
2023-04-28T12:14:50.151Z,1.91
2023-04-28T12:15:49.152Z,1.85
2023-04-28T12:16:50.149Z,2.02
2023-04-28T12:17:50.226Z,1.79
2023-04-28T12:18:50.121Z,1.89
2023-04-28T12:19:50.113Z,1.84
2023-04-28T12:20:49.124Z,1.96
2023-04-28T12:21:49.128Z,1.89
2023-04-28T12:22:50.167Z,1.88
2023-04-28T12:23:49.094Z,2.14
2023-04-28T12:24:50.091Z,2.24
2023-04-28T12:25:49.119Z,2.21
2023-04-28T12:26:49.089Z,2.29
2023-04-28T12:27:49.059Z,2.46
2023-04-28T12:28:49.067Z,1.96
2023-04-28T12:29:50.095Z,2.04
2023-04-28T12:30:49.140Z,1.96
2023-04-28T12:31:50.227Z,1.96
2023-04-28T12:32:49.239Z,2.41
2023-04-28T12:33:50.299Z,2.24
2023-04-28T12:34:50.302Z,1.81
2023-04-28T12:35:50.352Z,1.54
2023-04-28T12:36:50.389Z,1.96
2023-04-28T12:37:49.418Z,1.88
2023-04-28T12:38:50.459Z,1.93
2023-04-28T12:39:49.498Z,1.77
2023-04-28T12:40:50.537Z,1.93
2023-04-28T12:41:50.560Z,1.94
2023-04-28T12:42:50.589Z,1.67
2023-04-28T12:43:49.650Z,1.64
2023-04-28T12:44:49.662Z,1.88
2023-04-28T12:45:49.752Z,2.02
2023-04-28T12:46:50.735Z,1.99
2023-04-28T12:47:49.834Z,1.68
2023-04-28T12:48:50.803Z,1.95
2023-04-28T12:49:50.833Z,1.53
2023-04-28T12:50:49.837Z,1.72
2023-04-28T12:51:50.856Z,1.53
2023-04-28T12:52:50.881Z,1.41
2023-04-28T12:53:49.913Z,1.55
2023-04-28T12:54:50.928Z,1.86
2023-04-28T12:55:50.942Z,1.91
2023-04-28T12:56:50.990Z,2.07
2023-04-28T12:57:50.017Z,2.17
2023-04-28T12:58:50.063Z,1.84
2023-04-28T12:59:51.090Z,1.79
2023-04-28T13:00:50.095Z,1.85
2023-04-28T13:01:51.189Z,1.82
2023-04-28T13:02:51.384Z,2.04
2023-04-28T13:03:51.461Z,1.90
2023-04-28T13:04:50.337Z,1.93
2023-04-28T13:05:50.226Z,2.04
2023-04-28T13:06:51.226Z,1.85
2023-04-28T13:07:51.240Z,1.76
2023-04-28T13:08:50.245Z,2.15
2023-04-28T13:09:50.257Z,1.70
2023-04-28T13:10:51.270Z,1.76
2023-04-28T13:11:51.288Z,1.64
2023-04-28T13:12:50.309Z,2.23
2023-04-28T13:13:51.317Z,1.78
2023-04-28T13:14:50.344Z,1.53
2023-04-28T13:15:50.357Z,1.61
2023-04-28T13:16:51.382Z,1.53
2023-04-28T13:17:50.423Z,2.04
2023-04-28T13:18:50.445Z,2.09
2023-04-28T13:19:50.454Z,1.75
2023-04-28T13:20:50.465Z,1.58
2023-04-28T13:21:50.507Z,1.88
2023-04-28T13:22:50.494Z,1.43
2023-04-28T13:23:50.505Z,1.27
2023-04-28T13:24:51.532Z,1.71
2023-04-28T13:25:51.542Z,1.65
2023-04-28T13:26:51.564Z,1.65
2023-04-28T13:27:51.582Z,1.98
2023-04-28T13:28:51.598Z,1.90
2023-04-28T13:29:50.622Z,1.87
2023-04-28T13:30:50.626Z,1.82
2023-04-28T13:31:51.695Z,1.87
2023-04-28T13:32:51.699Z,1.74
2023-04-28T13:33:51.692Z,1.52
2023-04-28T13:34:51.715Z,1.58
2023-04-28T13:35:50.743Z,1.73
2023-04-28T13:36:51.748Z,1.71
2023-04-28T13:37:50.790Z,1.93
2023-04-28T13:38:51.780Z,1.89
2023-04-28T13:39:51.801Z,1.87
2023-04-28T13:40:51.806Z,1.82
2023-04-28T13:41:51.816Z,1.71
2023-04-28T13:42:51.830Z,1.57
2023-04-28T13:43:50.835Z,2.03
2023-04-28T13:44:51.882Z,1.73
2023-04-28T13:45:51.996Z,1.59
2023-04-28T13:46:51.916Z,2.02
2023-04-28T13:47:50.982Z,1.64
2023-04-28T13:48:50.967Z,2.02
2023-04-28T13:49:51.967Z,1.73
2023-04-28T13:50:51.987Z,1.53
2023-04-28T13:51:52.019Z,1.52
2023-04-28T13:52:51.035Z,1.57
2023-04-28T13:53:52.114Z,1.55
2023-04-28T13:54:51.052Z,1.65
2023-04-28T13:55:52.066Z,1.65
2023-04-28T13:56:51.073Z,1.92
2023-04-28T13:57:52.111Z,1.41
2023-04-28T13:58:51.114Z,1.99
2023-04-28T13:59:51.148Z,1.51
2023-04-28T14:00:51.162Z,1.36
2023-04-28T14:01:52.236Z,1.75
2023-04-28T14:04:10.110Z,1.60
2023-04-28T14:05:09.865Z,2.18
2023-04-28T14:06:10.877Z,1.71
2023-04-28T14:07:10.880Z,1.90
2023-04-28T14:08:10.849Z,1.42
2023-04-28T14:09:10.900Z,1.51
2023-04-28T14:10:09.882Z,1.73
2023-04-28T14:11:10.895Z,1.78
2023-04-28T14:12:10.930Z,1.40
2023-04-28T14:13:10.930Z,1.52
2023-04-28T14:14:09.929Z,1.77
2023-04-28T14:15:09.965Z,1.83
2023-04-28T14:16:09.962Z,1.93
2023-04-28T14:17:10.989Z,1.55
2023-04-28T14:18:11.031Z,1.77
2023-04-28T14:19:10.033Z,1.58
2023-04-28T14:20:10.052Z,1.25
2023-04-28T14:21:11.052Z,1.39
2023-04-28T14:22:11.121Z,1.57
2023-04-28T14:23:10.107Z,1.81
2023-04-28T14:24:10.122Z,1.48
2023-04-28T14:25:10.180Z,1.58
2023-04-28T14:26:10.165Z,1.51
2023-04-28T14:27:11.185Z,1.27
2023-04-28T14:28:11.195Z,1.52
2023-04-28T14:29:11.208Z,1.41
2023-04-28T14:30:10.224Z,1.65
2023-04-28T14:31:11.268Z,1.77
2023-04-28T14:32:10.279Z,1.57
2023-04-28T14:33:10.331Z,2.18
2023-04-28T14:34:11.315Z,1.56
2023-04-28T14:35:10.330Z,1.88
2023-04-28T14:36:10.336Z,1.65
2023-04-28T14:37:11.373Z,1.41
2023-04-28T14:38:11.390Z,1.59
2023-04-28T14:39:10.401Z,1.60
2023-04-28T14:40:11.460Z,1.58
2023-04-28T14:41:11.472Z,1.55
2023-04-28T14:42:10.462Z,1.54
2023-04-28T14:43:11.476Z,1.41
2023-04-28T14:44:11.519Z,1.54
2023-04-28T14:45:10.509Z,1.40
2023-04-28T14:46:10.567Z,1.44
2023-04-28T14:47:10.555Z,1.42
2023-04-28T14:48:10.688Z,1.52
2023-04-28T14:49:11.593Z,1.68
2023-04-28T14:50:13.871Z,1.58
2023-04-28T14:51:10.574Z,1.57
2023-04-28T14:52:11.577Z,1.29
2023-04-28T14:53:10.573Z,1.58
2023-04-28T14:54:11.590Z,1.36
2023-04-28T14:55:11.547Z,1.41
2023-04-28T14:57:11.568Z,1.54
2023-04-28T14:58:10.521Z,1.80
2023-04-28T14:59:10.517Z,1.63
2023-04-28T15:00:11.523Z,1.26
2023-04-28T15:01:11.517Z,1.58
2023-04-28T15:02:11.527Z,1.48
2023-04-28T15:03:10.595Z,1.66
2023-04-28T15:04:11.715Z,1.60
2023-04-28T15:05:10.617Z,1.79
2023-04-28T15:06:11.473Z,1.25
2023-04-28T15:07:10.483Z,1.85
2023-04-28T15:08:11.453Z,1.42
2023-04-28T15:09:10.446Z,1.72
2023-04-28T15:10:10.453Z,1.50
2023-04-28T15:11:11.429Z,1.39
2023-04-28T15:12:10.436Z,1.16
2023-04-28T15:13:11.474Z,1.55
2023-04-28T15:14:11.407Z,1.58
2023-04-28T15:15:11.400Z,1.91
2023-04-28T15:16:10.449Z,1.33
2023-04-28T15:17:10.398Z,1.38
2023-04-28T15:18:11.472Z,1.99
2023-04-28T15:19:11.383Z,1.58
2023-04-28T15:20:10.378Z,1.60
2023-04-28T15:21:11.386Z,1.58
2023-04-28T15:22:10.372Z,1.63
2023-04-28T15:23:11.348Z,2.05
2023-04-28T15:24:11.349Z,1.48
2023-04-28T15:25:11.346Z,1.60
2023-04-28T15:26:10.335Z,1.59
2023-04-28T15:27:11.571Z,1.60
2023-04-28T15:28:11.325Z,1.89
2023-04-28T15:29:10.390Z,1.66
2023-04-28T15:30:11.302Z,1.52
2023-04-28T15:31:17.327Z,1.75
2023-04-28T15:32:10.300Z,1.67
2023-04-28T15:33:11.359Z,1.45
2023-04-28T15:34:10.285Z,1.54
2023-04-28T15:35:11.281Z,1.38
2023-04-28T15:36:10.271Z,1.35
2023-04-28T15:37:11.281Z,1.81
2023-04-28T15:38:11.265Z,2.01
2023-04-28T15:39:10.238Z,1.59
2023-04-28T15:40:11.258Z,1.75
2023-04-28T15:41:11.277Z,1.38
2023-04-28T15:42:11.243Z,1.30
2023-04-28T15:43:10.351Z,1.61
2023-04-28T15:44:11.201Z,1.63
2023-04-28T15:45:10.341Z,1.51
2023-04-28T15:46:11.449Z,1.31
2023-04-28T15:47:11.299Z,1.38
2023-04-28T15:48:11.431Z,1.57
2023-04-28T15:49:10.190Z,1.37
2023-04-28T15:50:11.196Z,1.71
2023-04-28T15:51:11.187Z,1.51
2023-04-28T15:52:10.149Z,1.52
2023-04-28T15:53:11.148Z,1.46
2023-04-28T15:54:11.628Z,1.48
2023-04-28T15:55:11.177Z,1.35
2023-04-28T15:56:11.123Z,1.20
2023-04-28T15:57:10.149Z,1.28
2023-04-28T15:58:10.123Z,1.69
2023-04-28T15:59:10.121Z,1.42
2023-04-28T16:00:11.145Z,1.29
2023-04-28T16:01:11.190Z,1.57
2023-04-28T16:02:10.116Z,1.39
2023-04-28T16:03:10.223Z,1.75
2023-04-28T16:04:11.166Z,1.35
2023-04-28T16:05:10.087Z,1.16
2023-04-28T16:06:11.153Z,1.50
2023-04-28T16:07:11.065Z,1.51
2023-04-28T16:08:10.056Z,1.16
2023-04-28T16:09:11.037Z,1.37
2023-04-28T16:10:11.043Z,1.27
2023-04-28T16:11:11.050Z,1.29
2023-04-28T16:12:11.092Z,1.42
2023-04-28T16:13:11.102Z,1.75
2023-04-28T16:14:10.138Z,1.37
2023-04-28T16:15:10.165Z,2.69
2023-04-28T16:16:12.094Z,1.37
2023-04-28T16:17:11.898Z,1.22
2023-04-28T16:18:11.364Z,1.92
2023-04-28T16:19:11.868Z,1.33
2023-04-28T16:20:11.378Z,1.30
2023-04-28T16:21:11.368Z,1.42
2023-04-28T16:22:11.403Z,1.30
2023-04-28T16:23:13.905Z,1.69
2023-04-28T16:24:10.425Z,1.38
2023-04-28T16:25:11.416Z,1.23
2023-04-28T16:26:10.442Z,1.51
2023-04-28T16:27:11.399Z,1.49
2023-04-28T16:28:11.393Z,1.35
2023-04-28T16:29:12.801Z,1.85
2023-04-28T16:30:10.405Z,1.64
2023-04-28T16:31:11.409Z,1.51
2023-04-28T16:32:11.410Z,1.53
2023-04-28T16:33:10.471Z,1.59
2023-04-28T16:34:11.339Z,1.29
2023-04-28T16:35:13.933Z,1.50
2023-04-28T16:36:11.338Z,1.72
2023-04-28T16:37:11.337Z,1.46
2023-04-28T16:38:11.339Z,1.59
2023-04-28T16:39:11.324Z,1.31
2023-04-28T16:40:11.309Z,1.40
2023-04-28T16:41:10.322Z,1.56
2023-04-28T16:42:10.318Z,1.44
2023-04-28T16:43:10.302Z,1.39
2023-04-28T16:44:11.270Z,1.48
2023-04-28T16:45:11.294Z,1.46
2023-04-28T16:46:10.287Z,1.47
2023-04-28T16:47:11.261Z,1.40
2023-04-28T16:48:11.255Z,1.43
2023-04-28T16:49:11.261Z,2.07
2023-04-28T16:50:11.261Z,1.46
2023-04-28T16:51:11.233Z,1.09
2023-04-28T16:52:11.227Z,1.30
2023-04-28T16:53:11.244Z,1.28
2023-04-28T16:54:10.210Z,1.18
2023-04-28T16:55:10.232Z,1.29
2023-04-28T16:56:11.341Z,1.75
2023-04-28T16:57:11.853Z,1.42
2023-04-28T16:58:11.325Z,1.21
2023-04-28T16:59:10.295Z,1.27
2023-04-28T17:00:11.330Z,1.70
2023-04-28T17:01:11.403Z,1.31
2023-04-28T17:02:10.466Z,1.36
2023-04-28T17:03:11.628Z,1.38
2023-04-28T17:04:11.697Z,1.36
2023-04-28T17:05:11.550Z,1.07
2023-04-28T17:06:11.597Z,1.34
2023-04-28T17:07:11.605Z,1.52
2023-04-28T17:08:10.632Z,1.36
2023-04-28T17:09:10.687Z,1.34
2023-04-28T17:10:11.800Z,1.10
2023-04-28T17:11:11.766Z,1.11
2023-04-28T17:12:10.871Z,1.42
2023-04-28T17:13:11.858Z,1.03
2023-04-28T17:14:11.887Z,1.13
2023-04-28T17:15:10.930Z,1.55
2023-04-28T17:16:11.998Z,1.37
2023-04-28T17:17:12.056Z,1.48
2023-04-28T17:18:11.053Z,1.20
2023-04-28T17:19:12.092Z,1.71
2023-04-28T17:20:12.149Z,0.82
2023-04-28T17:21:12.197Z,1.63
2023-04-28T17:22:12.218Z,1.12
2023-04-28T17:23:12.270Z,1.46
2023-04-28T17:24:12.298Z,1.68
2023-04-28T17:25:12.352Z,1.42
2023-04-28T17:26:11.384Z,1.21
2023-04-28T17:27:12.491Z,1.74
2023-04-28T17:28:12.485Z,1.67
2023-04-28T17:29:11.507Z,1.02
2023-04-28T17:30:14.316Z,1.14
2023-04-28T17:31:12.576Z,1.40
2023-04-28T17:32:13.167Z,1.58
2023-04-28T17:33:14.034Z,1.54
2023-04-28T17:34:11.652Z,1.29
2023-04-28T17:35:12.639Z,1.22
2023-04-28T17:36:12.699Z,1.56
2023-04-28T17:37:12.756Z,1.58
2023-04-28T17:38:12.798Z,1.55
2023-04-28T17:39:15.502Z,1.69
2023-04-28T17:40:12.842Z,1.29
2023-04-28T17:41:12.802Z,1.33
2023-04-28T17:42:12.790Z,1.03
2023-04-28T17:43:12.886Z,1.44
2023-04-28T17:44:11.800Z,1.37
2023-04-28T17:45:11.793Z,1.09
2023-04-28T17:46:12.791Z,1.15
2023-04-28T17:47:11.758Z,1.17
2023-04-28T17:48:12.860Z,1.34
2023-04-28T17:49:12.748Z,1.28
2023-04-28T17:50:12.743Z,1.49
2023-04-28T17:51:12.745Z,1.25
2023-04-28T17:52:12.721Z,1.12
2023-04-28T17:53:12.807Z,1.36
2023-04-28T17:54:12.712Z,1.18
2023-04-28T17:55:11.687Z,1.36
2023-04-28T17:56:12.690Z,1.52
2023-04-28T17:57:12.675Z,1.22
2023-04-28T17:58:11.688Z,1.32
2023-04-28T17:59:12.676Z,1.27
2023-04-28T18:00:12.655Z,1.31
2023-04-28T18:01:11.685Z,1.38
2023-04-28T18:02:12.835Z,1.30
2023-04-28T18:03:12.942Z,1.02
2023-04-28T18:04:12.854Z,1.69
2023-04-28T18:05:13.075Z,1.15
2023-04-28T18:06:12.982Z,1.20
2023-04-28T18:07:13.010Z,1.59
2023-04-28T18:08:13.062Z,1.26
2023-04-28T18:09:12.152Z,1.08
2023-04-28T18:10:13.174Z,1.29
2023-04-28T18:11:13.239Z,1.09
2023-04-28T18:12:13.292Z,1.38
2023-04-28T18:13:13.340Z,1.10
2023-04-28T18:14:12.434Z,1.31
2023-04-28T18:15:12.457Z,1.09
2023-04-28T18:16:12.569Z,1.11
2023-04-28T18:17:12.568Z,1.37
2023-04-28T18:18:13.633Z,1.09
2023-04-28T18:19:13.678Z,1.20
2023-04-28T18:20:13.734Z,1.25
2023-04-28T18:21:12.815Z,1.29
2023-04-28T18:22:12.848Z,1.06
2023-04-28T18:23:12.925Z,1.36
2023-04-28T18:24:12.969Z,1.35
2023-04-28T18:25:14.065Z,1.09
2023-04-28T18:26:14.104Z,1.15
2023-04-28T18:27:14.129Z,1.04
2023-04-28T18:28:13.187Z,1.26
2023-04-28T18:29:14.261Z,1.30
2023-04-28T18:30:13.308Z,1.22
2023-04-28T18:31:14.383Z,1.37
2023-04-28T18:32:15.006Z,1.17
2023-04-28T18:33:14.501Z,1.42
2023-04-28T18:34:14.559Z,1.22
2023-04-28T18:35:13.595Z,1.42
2023-04-28T18:36:14.657Z,1.01
2023-04-28T18:37:14.713Z,1.13
2023-04-28T18:38:13.771Z,1.23
2023-04-28T18:39:14.849Z,1.28
2023-04-28T18:40:14.888Z,1.13
2023-04-28T18:41:14.099Z,0.92
2023-04-28T18:42:15.010Z,1.12
2023-04-28T18:43:14.054Z,1.57
2023-04-28T18:44:15.126Z,1.07
2023-04-28T18:45:15.172Z,1.06
2023-04-28T18:46:14.273Z,1.23
2023-04-28T18:47:15.292Z,1.27
2023-04-28T18:48:15.347Z,1.44
2023-04-28T18:49:14.411Z,1.27
2023-04-28T18:50:15.454Z,1.37
2023-04-28T18:51:14.509Z,1.23
2023-04-28T18:52:15.578Z,1.24
2023-04-28T18:53:15.644Z,1.17
2023-04-28T18:54:14.707Z,1.10
2023-04-28T18:55:15.746Z,1.21
2023-04-28T18:56:15.816Z,1.04
2023-04-28T18:57:14.907Z,0.95
2023-04-28T18:58:15.927Z,1.17
2023-04-28T18:59:15.095Z,1.36
2023-04-28T19:00:16.060Z,1.24
2023-04-28T19:01:16.143Z,0.94
2023-04-28T19:02:15.173Z,1.22
2023-04-28T19:03:16.353Z,1.21
2023-04-28T19:04:16.795Z,1.14
2023-04-28T19:05:16.351Z,1.23
2023-04-28T19:06:16.414Z,1.36
2023-04-28T19:07:15.461Z,1.12
2023-04-28T19:08:15.521Z,1.24
2023-04-28T19:09:15.574Z,1.33
2023-04-28T19:10:15.647Z,1.45
2023-04-28T19:11:16.707Z,1.36